Time;durP1;ratioP1;P1;durP2;ratioP2;P2;SDS_P1;SDS_P2;PMS_P1;PMS_P2;Temp;Humidity;BMP_temperature;BMP_pressure;BME280_temperature;BME280_humidity;BME280_pressure;Samples;Min_cycle;Max_cycle;Signal;HPM_P1;HPM_P2
2023/09/13 00:00:15;;;;;;;7.03;5.80;;;20.40;29.20;;;;;;5052941;28;20364;-71
2023/09/13 00:02:40;;;;;;;6.60;5.10;;;20.40;29.70;;;;;;5052531;28;20256;-71
2023/09/13 00:05:08;;;;;;;8.03;5.60;;;20.50;29.80;;;;;;5052716;28;20451;-70
2023/09/13 00:07:33;;;;;;;9.27;6.20;;;20.50;29.20;;;;;;5052702;28;20666;-70
2023/09/13 00:09:59;;;;;;;7.30;5.30;;;20.50;29.80;;;;;;5052652;28;20405;-70
2023/09/13 00:12:25;;;;;;;5.93;5.40;;;20.50;29.70;;;;;;5052367;28;20250;-71
2023/09/13 00:14:51;;;;;;;6.60;5.10;;;20.40;29.80;;;;;;5052686;28;20735;-70
2023/09/13 00:17:21;;;;;;;8.67;5.33;;;20.40;29.70;;;;;;5052344;28;20432;-71
2023/09/13 00:19:46;;;;;;;7.97;6.70;;;20.40;28.60;;;;;;5052728;28;20548;-70
2023/09/13 00:22:12;;;;;;;7.87;5.90;;;20.40;29.70;;;;;;5052311;28;20552;-70
2023/09/13 00:24:38;;;;;;;9.50;7.13;;;20.50;29.80;;;;;;5051082;28;20178;-70
2023/09/13 00:27:04;;;;;;;10.03;6.07;;;20.50;31.10;;;;;;5051941;28;20214;-69
2023/09/13 00:29:33;;;;;;;6.70;5.70;;;20.40;34.10;;;;;;5052380;28;20170;-70
2023/09/13 00:31:59;;;;;;;8.90;6.50;;;20.30;37.10;;;;;;5052475;28;20557;-71
2023/09/13 00:34:25;;;;;;;8.40;6.10;;;20.20;38.70;;;;;;5052763;28;20470;-71
2023/09/13 00:36:50;;;;;;;6.10;5.20;;;20.10;39.10;;;;;;5050975;28;21016;-70
2023/09/13 00:39:16;;;;;;;7.00;6.03;;;20.00;41.30;;;;;;5052283;28;20189;-70
2023/09/13 00:41:41;;;;;;;11.57;6.97;;;19.90;42.90;;;;;;5051839;28;20213;-70
2023/09/13 00:44:07;;;;;;;7.07;5.70;;;19.90;44.90;;;;;;5052144;28;20217;-71
2023/09/13 00:46:33;;;;;;;10.30;7.53;;;19.80;44.40;;;;;;5052028;28;20239;-70
2023/09/13 00:48:59;;;;;;;11.30;6.80;;;19.80;46.90;;;;;;5051976;28;20166;-70
2023/09/13 00:51:26;;;;;;;7.37;6.57;;;19.60;49.90;;;;;;5051760;28;20405;-70
2023/09/13 00:53:52;;;;;;;6.80;6.10;;;19.60;49.90;;;;;;5051976;28;20484;-70
2023/09/13 00:56:18;;;;;;;9.10;6.70;;;19.50;51.00;;;;;;5051646;28;20536;-70
2023/09/13 00:58:44;;;;;;;8.83;7.30;;;19.40;52.10;;;;;;5051958;28;20660;-70
2023/09/13 01:01:12;;;;;;;8.13;7.33;;;19.40;53.20;;;;;;5051624;28;20417;-70
2023/09/13 01:03:38;;;;;;;8.23;6.47;;;19.40;53.70;;;;;;5051733;28;20859;-70
2023/09/13 01:06:05;;;;;;;7.00;6.07;;;19.30;54.50;;;;;;5051985;28;20480;-71
2023/09/13 01:08:32;;;;;;;8.13;7.23;;;19.30;55.50;;;;;;5051874;28;20185;-70
2023/09/13 01:10:58;;;;;;;7.83;6.77;;;19.30;54.80;;;;;;5051708;28;20425;-70
2023/09/13 01:13:23;;;;;;;8.77;7.70;;;19.60;56.40;;;;;;5051750;28;20444;-70
2023/09/13 01:16:14;;;;;;;8.10;6.87;;;19.60;55.90;;;;;;5051631;28;20182;-71
2023/09/13 01:19:05;;;;;;;7.50;6.70;;;19.30;54.80;;;;;;5051880;28;20174;-70
2023/09/13 01:22:01;;;;;;;9.33;7.13;;;19.20;56.10;;;;;;5051359;28;20855;-70
2023/09/13 01:25:00;;;;;;;7.10;6.03;;;19.30;55.80;;;;;;5051845;28;20420;-70
2023/09/13 01:27:47;;;;;;;7.80;6.80;;;19.20;57.00;;;;;;5051411;28;20506;-70
2023/09/13 01:30:14;;;;;;;7.40;6.70;;;19.20;57.70;;;;;;5051477;28;20405;-70
2023/09/13 01:32:50;;;;;;;9.47;6.37;;;19.20;58.20;;;;;;5051170;28;20451;-70
2023/09/13 01:35:16;;;;;;;15.10;9.13;;;19.10;58.00;;;;;;5051412;28;20426;-70
2023/09/13 01:37:41;;;;;;;11.70;6.60;;;19.00;58.90;;;;;;5051160;28;20438;-71
2023/09/13 01:40:08;;;;;;;8.80;7.90;;;19.00;59.90;;;;;;5051336;28;20212;-70
2023/09/13 01:42:37;;;;;;;9.83;8.20;;;19.00;60.30;;;;;;5050970;28;20256;-70
2023/09/13 01:45:05;;;;;;;11.10;6.60;;;19.00;61.40;;;;;;5051347;28;20417;-71
2023/09/13 01:47:32;;;;;;;8.10;6.87;;;19.00;60.70;;;;;;5051205;28;20511;-71
2023/09/13 01:49:58;;;;;;;8.20;7.00;;;19.00;62.40;;;;;;5049979;28;20893;-71
2023/09/13 01:52:24;;;;;;;9.80;8.20;;;18.90;62.80;;;;;;5050901;28;20424;-71
2023/09/13 01:54:50;;;;;;;8.27;7.47;;;18.90;64.50;;;;;;5051366;28;20811;-72
2023/09/13 01:57:15;;;;;;;9.50;7.67;;;18.90;64.10;;;;;;5065536;22;20716;-71
2023/09/13 01:59:41;;;;;;;7.80;7.00;;;18.90;64.00;;;;;;5051545;28;20236;-71
2023/09/13 02:02:06;;;;;;;6.67;5.67;;;18.90;63.90;;;;;;5051405;28;20714;-71
2023/09/13 02:04:33;;;;;;;8.13;7.33;;;18.90;63.40;;;;;;5051552;28;20644;-71
2023/09/13 02:07:03;;;;;;;8.93;7.83;;;18.90;62.80;;;;;;5051610;28;20190;-71
2023/09/13 02:09:28;;;;;;;8.07;6.67;;;18.90;64.20;;;;;;5051678;28;20405;-71
2023/09/13 02:11:54;;;;;;;11.73;7.90;;;19.00;64.10;;;;;;5051364;28;20420;-71
2023/09/13 02:14:20;;;;;;;8.30;6.77;;;19.00;63.60;;;;;;5051649;28;20662;-71
2023/09/13 02:16:45;;;;;;;8.23;6.53;;;19.00;64.40;;;;;;5051521;28;20206;-71
2023/09/13 02:19:11;;;;;;;7.03;6.13;;;18.90;65.00;;;;;;5050258;28;20179;-71
2023/09/13 02:21:36;;;;;;;11.80;8.07;;;18.90;65.40;;;;;;5051265;28;20322;-72
2023/09/13 02:24:02;;;;;;;14.37;6.80;;;18.90;65.50;;;;;;5050644;28;20549;-71
2023/09/13 02:26:28;;;;;;;7.00;5.97;;;18.80;66.50;;;;;;5058504;28;20205;-71
2023/09/13 02:28:53;;;;;;;8.20;7.03;;;18.80;67.80;;;;;;5055925;28;20171;-71
2023/09/13 02:31:23;;;;;;;12.97;6.93;;;18.70;68.30;;;;;;5051264;28;20175;-71
2023/09/13 02:33:49;;;;;;;6.80;5.60;;;18.70;67.00;;;;;;5051421;28;20250;-71
2023/09/13 02:36:15;;;;;;;7.43;6.10;;;18.70;66.90;;;;;;5051314;28;20460;-71
2023/09/13 02:38:41;;;;;;;11.13;7.40;;;18.70;67.60;;;;;;5051319;28;20419;-71
2023/09/13 02:41:06;;;;;;;7.97;7.17;;;18.80;68.00;;;;;;5051214;28;20416;-71
2023/09/13 02:43:32;;;;;;;7.80;6.00;;;18.80;68.90;;;;;;5051233;28;20210;-71
2023/09/13 02:45:57;;;;;;;7.67;6.63;;;18.70;67.60;;;;;;5050153;28;20677;-71
2023/09/13 02:48:23;;;;;;;8.40;7.47;;;18.70;67.40;;;;;;5051438;28;20190;-71
2023/09/13 02:50:48;;;;;;;8.00;7.20;;;18.70;68.20;;;;;;5054381;28;20175;-71
2023/09/13 02:53:14;;;;;;;7.73;6.33;;;18.70;68.20;;;;;;5055037;28;20210;-71
2023/09/13 02:55:40;;;;;;;8.30;6.70;;;18.70;69.40;;;;;;5054988;28;20190;-71
2023/09/13 02:58:06;;;;;;;9.63;7.10;;;18.70;69.50;;;;;;5054880;28;20305;-71
2023/09/13 03:00:31;;;;;;;7.67;6.97;;;18.70;71.90;;;;;;5054904;28;20171;-71
2023/09/13 03:02:58;;;;;;;7.60;6.80;;;18.60;71.10;;;;;;5054626;28;20459;-71
2023/09/13 03:05:24;;;;;;;7.43;6.73;;;18.60;69.40;;;;;;5054752;28;20198;-74
2023/09/13 03:07:49;;;;;;;8.40;6.33;;;18.60;71.00;;;;;;5054661;28;20920;-71
2023/09/13 03:10:15;;;;;;;8.80;6.80;;;18.60;71.20;;;;;;5053230;28;20575;-71
2023/09/13 03:12:40;;;;;;;8.03;6.63;;;18.60;71.40;;;;;;5054594;28;20182;-71
2023/09/13 03:15:06;;;;;;;6.60;6.00;;;18.60;71.40;;;;;;5054590;28;20178;-71
2023/09/13 03:17:32;;;;;;;8.07;7.37;;;18.50;73.50;;;;;;5054250;28;20198;-71
2023/09/13 03:19:58;;;;;;;8.70;7.13;;;18.50;72.70;;;;;;5054144;28;20413;-71
2023/09/13 03:22:23;;;;;;;8.83;7.70;;;18.50;72.50;;;;;;5053990;28;20217;-72
2023/09/13 03:24:49;;;;;;;8.83;7.30;;;18.40;72.60;;;;;;5054524;28;20170;-72
2023/09/13 03:27:14;;;;;;;8.17;7.37;;;18.40;72.70;;;;;;5054334;28;20277;-71
2023/09/13 03:29:40;;;;;;;6.90;6.20;;;18.40;72.30;;;;;;5052918;28;20675;-72
2023/09/13 03:32:06;;;;;;;7.60;6.90;;;18.40;71.40;;;;;;5054026;28;20520;-72
2023/09/13 03:34:32;;;;;;;9.00;6.37;;;18.30;71.40;;;;;;5054149;28;20262;-71
2023/09/13 03:36:58;;;;;;;7.97;7.13;;;18.30;71.10;;;;;;5054101;28;20857;-71
2023/09/13 03:39:28;;;;;;;7.50;6.50;;;18.30;72.00;;;;;;5053058;28;20245;-72
2023/09/13 03:41:53;;;;;;;9.07;6.50;;;18.30;72.30;;;;;;5054402;28;20198;-71
2023/09/13 03:44:19;;;;;;;7.27;6.30;;;18.30;72.40;;;;;;5054067;28;20507;-71
2023/09/13 03:46:44;;;;;;;7.37;5.80;;;18.20;73.40;;;;;;5053747;28;20248;-71
2023/09/13 03:49:10;;;;;;;8.23;7.43;;;18.30;73.20;;;;;;5052573;28;20665;-71
2023/09/13 03:51:35;;;;;;;8.80;6.27;;;18.30;73.20;;;;;;5053727;28;20227;-71
2023/09/13 03:54:01;;;;;;;6.03;5.43;;;18.30;72.80;;;;;;5053763;28;20189;-71
2023/09/13 03:56:26;;;;;;;7.20;5.77;;;18.30;72.40;;;;;;5052400;28;20240;-71
2023/09/13 03:58:52;;;;;;;11.77;7.20;;;18.30;73.10;;;;;;5052390;28;20171;-71
2023/09/13 04:01:18;;;;;;;7.07;6.03;;;18.30;72.30;;;;;;5052080;28;20546;-72
2023/09/13 04:03:44;;;;;;;9.10;6.30;;;18.30;71.10;;;;;;5053519;28;20197;-71
2023/09/13 04:06:10;;;;;;;8.63;7.03;;;18.30;71.50;;;;;;5052114;28;20713;-71
2023/09/13 04:08:35;;;;;;;7.40;6.10;;;18.30;70.80;;;;;;5053384;28;20795;-71
2023/09/13 04:11:02;;;;;;;8.60;7.70;;;18.40;70.70;;;;;;5053176;28;20500;-71
2023/09/13 04:13:27;;;;;;;7.70;6.90;;;18.30;70.50;;;;;;5053405;28;20259;-72
2023/09/13 04:15:53;;;;;;;7.00;6.00;;;18.40;71.40;;;;;;5053330;28;20482;-71
2023/09/13 04:18:18;;;;;;;6.63;5.90;;;18.40;71.10;;;;;;5051730;28;20661;-71
2023/09/13 04:20:48;;;;;;;8.30;6.33;;;18.40;71.10;;;;;;5053199;28;20171;-71
2023/09/13 04:23:14;;;;;;;7.47;6.77;;;18.30;71.90;;;;;;5053132;28;20546;-71
2023/09/13 04:25:40;;;;;;;8.00;6.60;;;18.20;73.20;;;;;;5051708;28;20508;-71
2023/09/13 04:28:05;;;;;;;7.50;6.80;;;18.10;74.00;;;;;;5052929;28;20524;-71
2023/09/13 04:30:31;;;;;;;6.50;5.70;;;17.90;74.70;;;;;;5053026;28;20258;-71
2023/09/13 04:32:58;;;;;;;8.10;6.33;;;17.90;75.50;;;;;;5052798;28;20235;-72
2023/09/13 04:35:24;;;;;;;8.67;7.03;;;17.80;76.20;;;;;;5052935;28;20413;-71
2023/09/13 04:37:49;;;;;;;7.90;7.10;;;17.70;76.00;;;;;;5052847;28;20443;-71
2023/09/13 04:40:15;;;;;;;7.93;7.00;;;17.70;78.00;;;;;;5052774;28;20253;-71
2023/09/13 04:42:54;;;;;;;7.30;6.57;;;17.60;77.70;;;;;;5052579;28;20209;-71
2023/09/13 04:45:20;;;;;;;11.50;7.97;;;17.60;78.50;;;;;;5052907;28;20213;-71
2023/09/13 04:47:45;;;;;;;7.63;6.83;;;17.60;79.20;;;;;;5052939;28;20425;-71
2023/09/13 04:50:11;;;;;;;8.33;7.23;;;17.60;80.10;;;;;;5053527;28;20174;-71
2023/09/13 04:52:36;;;;;;;8.83;7.40;;;17.50;79.10;;;;;;5052881;28;20257;-71
2023/09/13 04:55:02;;;;;;;9.70;7.80;;;17.40;79.20;;;;;;5052930;28;20170;-71
2023/09/13 04:57:28;;;;;;;9.10;6.60;;;17.40;80.00;;;;;;5052426;28;20214;-71
2023/09/13 04:59:53;;;;;;;9.10;7.50;;;17.40;81.70;;;;;;5052459;28;20421;-71
2023/09/13 05:02:19;;;;;;;9.87;6.73;;;17.40;81.80;;;;;;5052314;28;20264;-71
2023/09/13 05:04:44;;;;;;;12.33;7.10;;;17.40;82.00;;;;;;5052406;28;20205;-71
2023/09/13 05:07:10;;;;;;;10.83;8.27;;;17.40;81.20;;;;;;5051238;28;20194;-71
2023/09/13 05:09:37;;;;;;;7.97;6.67;;;17.50;81.00;;;;;;5052200;28;20691;-72
2023/09/13 05:12:03;;;;;;;7.33;6.53;;;17.50;79.80;;;;;;5051547;28;20653;-73
2023/09/13 05:14:29;;;;;;;7.80;7.03;;;17.50;79.50;;;;;;5052237;28;20420;-71
2023/09/13 05:16:54;;;;;;;7.60;6.10;;;17.60;78.70;;;;;;5051985;28;20440;-71
2023/09/13 05:19:20;;;;;;;8.73;6.37;;;17.70;78.60;;;;;;5050787;28;20186;-71
2023/09/13 05:21:46;;;;;;;9.07;7.77;;;17.70;76.70;;;;;;5050331;28;20571;-71
2023/09/13 05:24:12;;;;;;;8.73;7.30;;;17.80;77.40;;;;;;5052141;28;20255;-71
2023/09/13 05:26:38;;;;;;;8.10;6.63;;;18.00;76.00;;;;;;5051828;28;20899;-71
2023/09/13 05:29:03;;;;;;;8.77;7.97;;;18.10;74.30;;;;;;5050560;28;20711;-72
2023/09/13 05:31:29;;;;;;;7.80;6.93;;;18.30;71.20;;;;;;5051750;28;20571;-71
2023/09/13 05:33:54;;;;;;;8.17;7.03;;;18.40;69.50;;;;;;5052371;28;20558;-71
2023/09/13 05:36:20;;;;;;;9.33;7.90;;;18.50;67.60;;;;;;5053467;28;20232;-70
2023/09/13 05:38:48;;;;;;;11.30;7.73;;;18.50;67.60;;;;;;5052397;28;20214;-69
2023/09/13 05:41:13;;;;;;;8.07;6.77;;;18.60;66.10;;;;;;5051827;28;20205;-70
2023/09/13 05:43:40;;;;;;;8.07;7.20;;;18.70;65.30;;;;;;5051924;28;20967;-70
2023/09/13 05:46:09;;;;;;;8.50;7.60;;;18.70;64.30;;;;;;5051597;28;20254;-70
2023/09/13 05:48:36;;;;;;;7.83;6.60;;;18.70;66.30;;;;;;5050481;28;20935;-70
2023/09/13 05:51:02;;;;;;;9.63;6.67;;;18.90;64.50;;;;;;5051622;28;20413;-70
2023/09/13 05:53:29;;;;;;;7.33;6.63;;;18.80;64.40;;;;;;5052301;28;20411;-70
2023/09/13 05:55:55;;;;;;;10.30;7.40;;;18.90;63.30;;;;;;5051864;28;20623;-71
2023/09/13 05:58:20;;;;;;;7.47;6.37;;;19.10;60.40;;;;;;5051567;28;20488;-71
2023/09/13 06:00:48;;;;;;;10.53;6.40;;;19.20;60.40;;;;;;5051656;28;20190;-72
2023/09/13 06:03:16;;;;;;;7.70;6.90;;;19.40;59.80;;;;;;5051615;28;20268;-71
2023/09/13 06:05:42;;;;;;;7.63;6.23;;;19.50;57.90;;;;;;5051663;28;20452;-71
2023/09/13 06:08:08;;;;;;;8.27;5.47;;;19.70;55.10;;;;;;5051309;28;20425;-71
2023/09/13 06:10:33;;;;;;;6.33;5.37;;;19.70;53.60;;;;;;5051424;28;20405;-71
2023/09/13 06:12:59;;;;;;;8.43;5.90;;;19.80;51.70;;;;;;5049898;28;20183;-72
2023/09/13 06:15:24;;;;;;;6.53;5.00;;;19.80;50.80;;;;;;5051494;28;20181;-71
2023/09/13 06:17:51;;;;;;;8.47;6.43;;;19.90;51.30;;;;;;5051748;28;20559;-72
2023/09/13 06:20:17;;;;;;;6.00;5.30;;;20.00;49.70;;;;;;5051595;28;20167;-71
2023/09/13 06:22:43;;;;;;;10.57;6.97;;;20.00;50.30;;;;;;5051486;28;20475;-71
2023/09/13 06:25:08;;;;;;;11.53;6.77;;;19.90;50.10;;;;;;5055347;28;20413;-71
2023/09/13 06:27:34;;;;;;;8.70;6.57;;;20.00;50.30;;;;;;5055316;28;20198;-69
2023/09/13 06:30:00;;;;;;;15.73;7.10;;;20.10;52.30;;;;;;5055660;28;20186;-69
2023/09/13 06:32:26;;;;;;;8.90;7.13;;;20.20;51.30;;;;;;5053772;28;20182;-69
2023/09/13 06:34:56;;;;;;;8.33;6.70;;;20.40;50.40;;;;;;5055164;28;20174;-69
2023/09/13 06:37:22;;;;;;;6.77;6.10;;;20.40;48.60;;;;;;5055232;28;20425;-68
2023/09/13 06:39:47;;;;;;;8.63;7.73;;;20.50;48.20;;;;;;5055416;28;20853;-68
2023/09/13 06:42:13;;;;;;;7.63;6.83;;;20.60;47.40;;;;;;5055114;28;20213;-69
2023/09/13 06:44:40;;;;;;;9.00;6.43;;;20.70;47.50;;;;;;5056187;28;20202;-69
2023/09/13 06:47:06;;;;;;;8.77;6.90;;;20.70;46.20;;;;;;5056574;28;20707;-69
2023/09/13 06:49:31;;;;;;;7.13;6.13;;;20.80;46.10;;;;;;5054624;28;20515;-69
2023/09/13 06:51:57;;;;;;;8.40;7.20;;;21.00;43.80;;;;;;5054966;28;20503;-68
2023/09/13 06:54:23;;;;;;;7.80;6.80;;;21.10;40.90;;;;;;5053139;28;20182;-68
2023/09/13 06:56:48;;;;;;;9.13;6.83;;;21.20;39.10;;;;;;5055253;28;20210;-70
2023/09/13 06:59:14;;;;;;;8.67;6.60;;;21.20;38.20;;;;;;5051877;28;20269;-69
2023/09/13 07:01:40;;;;;;;7.57;6.40;;;21.10;37.70;;;;;;5052967;28;20431;-68
2023/09/13 07:04:06;;;;;;;7.30;6.10;;;21.10;38.40;;;;;;5051007;28;20187;-69
2023/09/13 07:06:31;;;;;;;8.07;5.70;;;21.20;37.90;;;;;;5045257;28;20859;-68
2023/09/13 07:08:57;;;;;;;8.00;5.33;;;21.30;36.50;;;;;;5050930;28;20524;-68
2023/09/13 07:11:24;;;;;;;15.70;8.10;;;21.50;36.50;;;;;;5043198;28;20191;-68
2023/09/13 07:13:49;;;;;;;9.40;6.90;;;21.60;35.60;;;;;;5030673;28;20214;-69
2023/09/13 07:16:15;;;;;;;7.90;5.83;;;21.70;35.20;;;;;;5048442;28;20835;-67
2023/09/13 07:18:41;;;;;;;10.57;6.20;;;21.50;35.10;;;;;;5050565;28;20258;-71
2023/09/13 07:21:07;;;;;;;8.23;5.50;;;21.30;38.10;;;;;;5050687;28;20182;-70
2023/09/13 07:23:33;;;;;;;6.00;5.17;;;21.30;37.60;;;;;;5048547;28;20214;-67
2023/09/13 07:25:59;;;;;;;12.53;6.57;;;21.30;38.50;;;;;;5051564;28;20441;-69
2023/09/13 07:28:25;;;;;;;6.77;5.33;;;21.20;36.80;;;;;;5051403;28;20425;-69
2023/09/13 07:30:50;;;;;;;7.10;4.50;;;21.10;37.20;;;;;;5054323;28;20421;-69
2023/09/13 07:33:16;;;;;;;7.43;5.83;;;21.20;36.90;;;;;;5054648;28;20452;-68
2023/09/13 07:35:42;;;;;;;8.40;6.47;;;21.40;36.70;;;;;;5053493;28;20189;-69
2023/09/13 07:38:07;;;;;;;6.87;5.73;;;21.60;33.30;;;;;;5051916;28;20300;-69
2023/09/13 07:40:33;;;;;;;7.33;5.57;;;21.50;34.60;;;;;;5053807;28;20194;-69
2023/09/13 07:42:59;;;;;;;5.90;5.23;;;21.50;35.10;;;;;;5053681;28;20665;-69
2023/09/13 07:45:25;;;;;;;8.03;6.10;;;21.60;35.00;;;;;;5049821;28;20191;-70
2023/09/13 07:47:50;;;;;;;6.90;5.00;;;21.70;31.10;;;;;;5053545;28;20448;-69
2023/09/13 07:50:29;;;;;;;6.20;5.13;;;21.90;31.80;;;;;;5053881;28;20774;-69
2023/09/13 07:52:55;;;;;;;7.07;5.67;;;22.00;31.00;;;;;;5053336;28;20262;-69
2023/09/13 07:55:21;;;;;;;8.30;5.43;;;22.10;31.30;;;;;;5053755;28;20452;-69
2023/09/13 07:57:46;;;;;;;7.03;6.33;;;22.40;29.80;;;;;;5053553;28;20717;-70
2023/09/13 08:00:12;;;;;;;6.60;5.90;;;23.10;27.30;;;;;;5048256;28;20178;-68
2023/09/13 08:02:38;;;;;;;7.43;5.10;;;23.50;24.80;;;;;;5049776;28;20267;-69
2023/09/13 08:05:04;;;;;;;7.17;6.30;;;23.90;23.60;;;;;;5051531;28;20460;-68
2023/09/13 08:07:29;;;;;;;8.67;6.33;;;24.20;22.90;;;;;;5049797;28;20246;-68
2023/09/13 08:09:55;;;;;;;7.90;5.30;;;24.30;21.50;;;;;;5048162;28;20464;-70
2023/09/13 08:12:21;;;;;;;6.40;5.77;;;24.30;21.80;;;;;;5050351;28;20190;-69
2023/09/13 08:14:47;;;;;;;6.70;6.10;;;23.80;22.50;;;;;;5052916;28;20179;-69
2023/09/13 08:17:12;;;;;;;6.83;5.03;;;23.90;22.40;;;;;;5052290;28;20433;-68
2023/09/13 08:19:38;;;;;;;5.60;5.00;;;23.20;23.90;;;;;;5052935;28;20229;-69
2023/09/13 08:22:04;;;;;;;5.93;5.07;;;23.00;26.60;;;;;;5052942;28;20205;-69
2023/09/13 08:24:32;;;;;;;8.33;5.57;;;23.10;25.90;;;;;;5053357;28;20199;-69
2023/09/13 08:26:57;;;;;;;7.57;5.97;;;23.30;26.10;;;;;;5053145;28;20530;-69
2023/09/13 08:29:23;;;;;;;10.60;4.80;;;23.40;26.10;;;;;;5051233;28;20456;-69
2023/09/13 08:31:48;;;;;;;7.90;5.47;;;23.30;25.00;;;;;;5051141;28;20186;-69
2023/09/13 08:34:14;;;;;;;8.20;5.27;;;23.10;26.90;;;;;;5052815;28;20269;-69
2023/09/13 08:36:40;;;;;;;9.07;5.10;;;22.80;26.20;;;;;;5052179;28;20609;-70
2023/09/13 08:39:06;;;;;;;7.03;4.80;;;23.20;26.90;;;;;;5052988;28;20178;-69
2023/09/13 08:41:33;;;;;;;8.70;6.17;;;23.40;26.30;;;;;;5052699;28;20417;-68
2023/09/13 08:44:02;;;;;;;6.70;5.53;;;23.70;23.80;;;;;;5052782;28;20920;-68
2023/09/13 08:46:29;;;;;;;8.73;6.10;;;23.60;25.20;;;;;;5051637;28;20445;-69
2023/09/13 08:48:55;;;;;;;9.23;5.33;;;23.60;23.40;;;;;;5052010;28;20433;-69
2023/09/13 08:51:22;;;;;;;8.93;5.27;;;23.70;24.70;;;;;;5052000;28;20424;-69
2023/09/13 08:53:53;;;;;;;6.67;5.43;;;23.80;23.50;;;;;;5052269;28;20418;-68
2023/09/13 08:56:21;;;;;;;5.80;4.00;;;23.80;22.50;;;;;;5052049;28;20425;-69
2023/09/13 08:58:47;;;;;;;5.60;4.77;;;23.30;23.20;;;;;;5052505;28;20413;-70
2023/09/13 09:01:16;;;;;;;6.10;4.13;;;23.10;22.70;;;;;;5051988;28;20425;-69
2023/09/13 09:03:43;;;;;;;4.50;3.93;;;22.80;22.80;;;;;;5052207;28;20260;-69
2023/09/13 09:06:10;;;;;;;6.73;5.40;;;22.70;22.80;;;;;;5052861;28;20815;-69
2023/09/13 09:08:39;;;;;;;8.17;5.57;;;22.60;23.90;;;;;;5052635;28;20752;-69
2023/09/13 09:11:05;;;;;;;5.13;3.80;;;22.60;24.00;;;;;;5050538;28;20421;-69
2023/09/13 09:13:32;;;;;;;8.27;5.07;;;22.70;23.80;;;;;;5051079;28;20436;-69
2023/09/13 09:15:59;;;;;;;4.77;4.07;;;22.70;24.30;;;;;;5051841;28;20170;-69
2023/09/13 09:18:27;;;;;;;4.23;3.53;;;22.50;25.60;;;;;;5051603;28;20452;-69
2023/09/13 09:20:52;;;;;;;4.70;4.20;;;22.30;26.30;;;;;;5051945;28;20435;-69
2023/09/13 09:23:20;;;;;;;6.20;5.40;;;22.20;26.90;;;;;;5051907;28;20502;-69
2023/09/13 09:25:49;;;;;;;5.27;3.90;;;22.10;25.30;;;;;;5051953;28;20175;-69
2023/09/13 09:28:15;;;;;;;5.33;3.50;;;22.00;24.70;;;;;;5067251;28;20436;-69
2023/09/13 09:30:42;;;;;;;6.20;4.40;;;21.90;26.30;;;;;;5051643;28;20420;-69
2023/09/13 09:33:08;;;;;;;8.47;4.37;;;22.00;25.70;;;;;;5051649;28;20198;-69
2023/09/13 09:35:37;;;;;;;6.13;4.50;;;22.00;26.50;;;;;;5051998;28;20838;-70
2023/09/13 09:38:03;;;;;;;5.83;3.97;;;22.10;27.50;;;;;;5058697;28;20194;-70
2023/09/13 09:40:37;;;;;;;5.67;4.30;;;22.40;27.50;;;;;;5056182;28;20477;-69
2023/09/13 09:43:03;;;;;;;5.83;3.93;;;22.40;25.00;;;;;;5051790;28;20447;-69
2023/09/13 09:45:29;;;;;;;6.70;3.60;;;22.50;24.00;;;;;;5051517;28;20448;-69
2023/09/13 09:47:55;;;;;;;7.20;4.30;;;22.60;25.30;;;;;;5051690;28;20676;-69
2023/09/13 09:50:21;;;;;;;7.37;4.73;;;22.50;26.30;;;;;;5048569;28;20730;-69
2023/09/13 09:52:50;;;;;;;6.17;4.13;;;22.70;26.60;;;;;;5047243;28;20444;-71
2023/09/13 09:55:18;;;;;;;5.67;4.50;;;23.10;24.80;;;;;;5046947;28;20436;-69
2023/09/13 09:57:48;;;;;;;6.37;4.90;;;23.10;21.90;;;;;;5051401;28;20821;-69
2023/09/13 10:00:14;;;;;;;6.43;4.43;;;23.40;21.40;;;;;;5055652;28;20838;-69
2023/09/13 10:02:40;;;;;;;7.80;5.27;;;23.70;21.00;;;;;;5053999;28;20460;-69
2023/09/13 10:05:05;;;;;;;6.20;4.73;;;23.80;20.90;;;;;;5055414;28;20486;-69
2023/09/13 10:07:40;;;;;;;6.70;4.53;;;23.70;19.90;;;;;;5055158;28;20224;-69
2023/09/13 10:10:09;;;;;;;5.27;4.10;;;23.50;19.40;;;;;;5054153;28;20171;-69
2023/09/13 10:12:44;;;;;;;4.80;3.57;;;23.20;20.40;;;;;;5052695;28;20459;-69
2023/09/13 10:15:11;;;;;;;5.40;2.83;;;23.00;21.40;;;;;;5050559;28;20872;-69
2023/09/13 10:17:40;;;;;;;4.60;1.90;;;22.90;18.90;;;;;;5070273;28;20452;-69
2023/09/13 10:20:06;;;;;;;2.60;2.13;;;22.30;16.50;;;;;;5048942;28;20435;-68
2023/09/13 10:22:35;;;;;;;4.07;2.77;;;22.20;18.90;;;;;;5055064;28;20817;-69
2023/09/13 10:25:06;;;;;;;2.33;1.83;;;22.30;19.90;;;;;;5055207;28;20420;-68
2023/09/13 10:27:34;;;;;;;9.07;3.43;;;22.50;19.20;;;;;;5053859;28;20910;-68
2023/09/13 10:30:03;;;;;;;2.60;1.80;;;22.70;18.40;;;;;;5055054;28;20413;-68
2023/09/13 10:32:47;;;;;;;4.13;2.50;;;22.70;15.50;;;;;;5040036;28;20426;-68
2023/09/13 10:35:15;;;;;;;4.60;2.40;;;22.80;15.70;;;;;;5035217;28;20984;-69
2023/09/13 10:37:51;;;;;;;7.23;2.70;;;23.10;14.80;;;;;;5035079;28;20781;-69
2023/09/13 10:40:32;;;;;;;3.67;2.40;;;23.50;14.70;;;;;;5051674;28;20771;-69
2023/09/13 10:42:58;;;;;;;3.07;2.13;;;24.30;11.50;;;;;;5053373;28;20463;-69
2023/09/13 10:45:25;;;;;;;2.80;2.20;;;24.40;10.00;;;;;;5055164;28;20508;-68
2023/09/13 10:47:52;;;;;;;3.00;2.70;;;25.30;9.10;;;;;;5054313;28;20509;-68
2023/09/13 10:50:19;;;;;;;4.87;2.97;;;25.40;8.30;;;;;;5054976;28;20436;-69
2023/09/13 10:52:44;;;;;;;3.90;3.30;;;25.50;10.30;;;;;;5054919;28;20843;-68
2023/09/13 10:55:13;;;;;;;3.83;3.30;;;25.90;9.20;;;;;;5054946;28;20535;-68
2023/09/13 10:57:41;;;;;;;5.40;4.07;;;26.40;7.70;;;;;;5054596;28;20244;-69
2023/09/13 11:00:10;;;;;;;6.27;4.40;;;27.20;5.90;;;;;;5054568;28;20432;-69
2023/09/13 11:02:37;;;;;;;4.40;3.70;;;26.90;7.20;;;;;;5053984;28;20452;-69
2023/09/13 11:05:03;;;;;;;4.27;3.87;;;26.60;7.70;;;;;;5054340;28;20413;-69
2023/09/13 11:07:31;;;;;;;7.73;4.60;;;26.30;8.10;;;;;;5050719;28;20437;-69
2023/09/13 11:10:04;;;;;;;7.53;5.33;;;26.20;8.10;;;;;;5033837;28;20522;-69
2023/09/13 11:12:35;;;;;;;4.20;3.60;;;25.20;11.60;;;;;;5034093;28;20414;-69
2023/09/13 11:15:18;;;;;;;3.63;2.97;;;24.10;15.00;;;;;;5039471;28;20508;-69
2023/09/13 11:17:44;;;;;;;5.10;2.60;;;23.00;18.90;;;;;;5054329;28;20433;-68
2023/09/13 11:20:36;;;;;;;4.90;2.27;;;22.70;19.90;;;;;;5054161;28;20523;-69
2023/09/13 11:23:09;;;;;;;3.00;2.33;;;22.70;19.50;;;;;;5052720;28;20206;-68
2023/09/13 11:25:47;;;;;;;3.20;2.13;;;22.50;20.70;;;;;;5052859;28;20425;-68
2023/09/13 11:28:43;;;;;;;3.80;2.70;;;22.20;22.40;;;;;;5053844;28;20452;-68
2023/09/13 11:31:10;;;;;;;3.40;2.43;;;21.80;25.20;;;;;;5053575;28;20417;-68
2023/09/13 11:33:46;;;;;;;3.20;2.50;;;21.50;27.40;;;;;;5054343;28;20939;-68
2023/09/13 11:36:20;;;;;;;3.50;2.60;;;21.40;30.00;;;;;;5053835;28;20511;-68
2023/09/13 11:38:53;;;;;;;3.50;3.03;;;21.50;29.90;;;;;;5069495;28;20511;-68
2023/09/13 11:41:18;;;;;;;3.03;2.33;;;21.80;28.70;;;;;;5053094;28;20456;-69
2023/09/13 11:43:45;;;;;;;3.70;3.10;;;22.00;28.30;;;;;;5053819;28;20491;-68
2023/09/13 11:46:12;;;;;;;7.27;3.17;;;22.30;27.70;;;;;;5053691;28;20185;-68
2023/09/13 11:48:41;;;;;;;4.23;2.47;;;22.50;27.60;;;;;;5053765;28;20436;-69
2023/09/13 11:51:14;;;;;;;4.70;3.07;;;23.00;23.00;;;;;;5053470;28;20916;-69
2023/09/13 11:53:41;;;;;;;5.63;2.70;;;23.50;20.70;;;;;;5053848;28;20416;-68
2023/09/13 11:56:28;;;;;;;3.47;2.63;;;24.00;19.40;;;;;;5053910;28;20517;-68
2023/09/13 11:58:58;;;;;;;9.93;3.80;;;24.20;15.10;;;;;;5053931;28;20433;-72
2023/09/13 12:01:24;;;;;;;3.67;2.70;;;24.50;15.50;;;;;;5074233;28;20425;-70
2023/09/13 12:03:51;;;;;;;4.53;2.97;;;24.90;13.30;;;;;;5061477;28;21032;-68
2023/09/13 12:06:18;;;;;;;3.30;2.70;;;25.30;12.60;;;;;;5057409;28;20996;-67
2023/09/13 12:08:47;;;;;;;3.67;3.17;;;25.30;11.10;;;;;;5054471;28;20973;-67
2023/09/13 12:11:13;;;;;;;4.00;2.80;;;25.40;10.70;;;;;;5053192;28;20445;-69
2023/09/13 12:13:50;;;;;;;3.60;3.10;;;25.20;10.40;;;;;;5053026;28;20445;-67
2023/09/13 12:16:17;;;;;;;4.20;3.23;;;24.60;12.80;;;;;;5053177;28;20473;-67
2023/09/13 12:18:43;;;;;;;4.57;3.30;;;24.80;13.40;;;;;;5053298;28;20786;-67
2023/09/13 12:21:10;;;;;;;3.37;2.87;;;25.00;11.90;;;;;;5052441;28;20437;-67
2023/09/13 12:23:43;;;;;;;4.10;2.83;;;25.00;11.10;;;;;;5052517;28;20448;-67
2023/09/13 12:26:11;;;;;;;5.83;3.13;;;24.90;10.40;;;;;;5051690;28;20429;-67
2023/09/13 12:28:39;;;;;;;3.40;2.80;;;24.80;10.90;;;;;;5053060;28;20764;-66
2023/09/13 12:31:09;;;;;;;4.53;2.43;;;24.60;11.30;;;;;;5052532;28;20432;-68
2023/09/13 12:33:39;;;;;;;3.10;2.60;;;24.50;12.30;;;;;;5053208;28;20503;-67
2023/09/13 12:36:05;;;;;;;4.33;3.30;;;24.50;12.00;;;;;;5052784;28;20414;-67
2023/09/13 12:38:45;;;;;;;3.53;3.20;;;24.40;12.40;;;;;;5052792;28;20421;-67
2023/09/13 12:41:14;;;;;;;3.60;3.13;;;24.40;13.10;;;;;;5052801;28;20409;-68
2023/09/13 12:43:42;;;;;;;3.60;3.03;;;24.40;12.70;;;;;;5051479;28;20511;-69
2023/09/13 12:46:10;;;;;;;4.97;3.23;;;24.50;13.40;;;;;;5051591;28;20418;-68